Alpachiri, Argentina
Current Conditions -  °F | °C
As of 3:00 PM on Monday 22 Dec 2014 (Local Time) from SANT Reporting Station
Broken Clouds Broken Clouds  
Wind Chill: 66°   Ceiling: 3000
Heat Index: 66°   Visibility: 6mi
Dew Point: 52°   Wind: 7mph
Humidity: 60%   Direction: 90°E
Pressure: 30.15"   Gusts: NA
Location:  27.33°S, 65.75°W
Report Text: SANT 221800Z 09006KT 9999 FEW020 BKN03019/11 Q1021
Loading
Personal Weather Stations






























Interactive Weather Map New forecast layout! Learn more

10-Day Weather Forecast

Advertisements
Track Severe Weather on mobile